Hovedside
METAR-TAF:

METAR-TAF

Lufthavner :

Stokmarknes lufthavn. Skagen

Stokmarknes, Norge

breddegrad: 68-35N, lengdegrad: 015-01E, høyde over havet: 0 m

Gjeldene værobservasjon

Denne rapporten ble laget for 26 minutter siden, klokken 18:20 UTC
Vind 14 kt fra Sørvest
Temperatur 8°C
Luftfuktighet 81%
Trykk 1029 hPa
Sikt 10 km eller mer
Få skyer i en høyde av 600 ft
Spredte skyer i en høyde av 1500 ft
Brutte skyer i en høyde av 1900 ft
lett regn, duskregn

METAR: ENSK 191820Z 22014KT 9999 -RADZ FEW006 SCT015 BKN019 08/05 Q1029

Tid: 19:46 (18:46 UTC)


TAF: fraværende

Værobservasjoner og værvarsel for over 4000 flyplasser (METAR- og TAF-rapporter).

Tilgjengelige stasjoner er representert av de røde og gule prikkene på kartet.

Hold musepekeren over prikken for å se navnet på stasjonen.

Klikk så for å se værobservasjoner og -varsler.

For å forandre kartet kan du klikke på den grønne knappen med svart kryss for å zoome inn, på den grønne knappen med strek for å zoome ut, eller på de grønne pilene for å se tilstøtende kart.


METAR-TAF: